• NOTAM LFGB

     19/05 12:00Z - 01/06/22 11:59Z
    E) NOTAM TRIGGER - AMDT AIP AIRAC PERM 05/22 WEF 19 MAY 2022. MODIFICATION FREQUENCE A/A.

    NOTAM LFSB

     27/12/21 09:47Z - 30/06/22 11:59Z
    E) PROCEDURE D'APPROCHE AUX INSTRUMENTS RNAV GNSS RWY33 SUSPENDUE : REF AIP : AD 2 LFSB IAC RWY33 RNP.

     27/12/21 09:54Z - 30/06/22 11:59Z
    E) APPROCHES AUX INSTRUMENTS ILS Y CAT 1 OU LOC Y RWY33 SUSPENDUES : REF AIP FRANCE : AD2 LFSB IAC RWY33 FNA-ILS Y CAT 1 LOC Y

     27/12/21 09:57Z - 30/06/22 11:59Z
    E) LES SID SUIVANTS SONT SUSPENDUS : RWY 15 LASAT 7S RWY 33 LASAT 7N LA PLANIFICATION DE CES SID EST INTERDITE REF : AD2 LFSB SID RWY 15 RNAV AD2 LFSB SID RWY 33 RNAV.

     24/02 04:00Z - 30/05/22 03:00Z
    E) REFECTION D'UNE PARTIE DU PARKING SUD - SUP AIP AIRAC 003/22 EN VIGUEUR LE 24 FEVRIER 2022 0400 : OBJET : RESTRICTIONS D'UTILISATION DE L'AERODROME ET MODIFICATIONS DE POSTES DE STATIONNEMENT ET DES CONDITIONS D'ACCES AU PARKING. LES DIFFERENTES PHASES SERONT ACTIVEES PAR NOTAM. CE SUP AIP EST DISPONIBLE SUR WWW.SIA.AVIATION-CIVILE.GOUV.FR

     24/02 11:00Z - 30/05/22 03:00Z
    E) SUP AIP AIRAC 003/22 : ACTIVATION PHASE DE TRANSITION 1

     19/05 12:00Z - 30/11/22 11:59Z
    E) REMPLACEMENT TEMPORAIRE DU VOR/DME STR - SUP AIP AIRAC 055/22 : OBJET : IMPACT SUR STAR STR8K CE SUP AIP EST DISPONIBLE SUR WWW.SIA.AVIATION-CIVILE.GOUV.FR

     14/04 09:06Z - 14/07/22 11:59Z
    E) PROCEDURES ANTIBRUIT - NOUVELLES RESTRICTIONS : -AUCUN AERONEF CHAPITRE 3 DONT LA MARGE CUMULEE EST INFERIEURE A 13 EPNDB NE PEUT : -ATTERRIR OU REPOUSSER ENTRE 2000 ET 2200 -ATTERRIR ENTRE 0300 ET 0400 QUELLE QUE SOIT SA MARGE CUMULEE. -AUCUN AERONEF NE PEUT EFFECTUER UN DEPART PROGRAMME ENTRE 2100 ET 2200 A L'EXCEPTION DES VOLS COMMERCIAUX RETARDES POUR DES RAISONS INDEPENDANTES DE LA VOLONTE DU TRANSPORTEUR. -LE TRANSPORTEUR AERIEN FOURNIRA DANS UN DELAI DE 48HR AUX SERVICES DE L'AVIATION CIVILE LES ELEMENTS RELATIFS AUX MOTIFS DU RETARD DES VOLS OPERES. -TOUTE MENTION D'HEURE DE DEPART D'UN AERONEF S'ENTEND COMME HEURE DE REPOUSSAGE DU POINT DE STATIONNEMENT. -REF : AD2 LFSB AD 2.21 ARRETE DU 06 AOUT 2021

     19/05 12:00Z - 01/06/22 11:59Z
    E) NOTAM TRIGGER - SUP AIP AIRAC 056/22 EN VIGUEUR DU 19 MAI AU 31 DEC 2022 : PROLONGATION DE LA MODIFICATION, A TITRE EXPERIMENTAL, DES SID RNAV RWY 15 VERS TORPA ET MOROK. ANNEXE 4 : LIRE SB515 AU LIEU DE BS

     19/05 12:00Z - 31/12/22 11:59Z
    E) PROLONGATION DE LA MODIFICATION, A TITRE EXPERIMENTAL, DES SID RNAV RWY 15 VERS TORPA ET MOROK - SUP AIP AIRAC 056/22 : ANNEXE 4 : LIRE SB515 AU LIEU DE BS CE SUP AIP EST DISPONIBLE SUR WWW.SIA.AVIATION-CIVILE.GOUV.FR

     11/05 10:01Z - 31/07/22 05:00Z
    D) 1000-1700 E) DECLASSEMENT DES ILS: PAR VISIBILITE SUPERIEURE A 550M ET/OU PLAFOND SUPERIEUR OU EGAL A 200FT: - DECLASSEMENT DE L'ILS 15 EN I.T.4 - DECLASSEMENT DE L'ILS 33 EN I.B.1 APPROCHES ILS CAT 2 ET CAT 3 INDISPONIBLES.

     23/05 06:30Z - 25/05/22 03:30Z
    D) 0630-1530 E) PAR VISIBILITE SUPERIEURE A 1500M, ILS RWY 15 HORS SERVICE CAUSE MAINTENANCE : NE PAS UTILISER, FAUSSES INDICATIONS POSSIBLES.

    NOTAM LFST

     23/05 06:30Z - 23/05/22 04:00Z
    E) ILS RWY 23 HORS SERVICE CAUSE MAINTENANCE : NE PAS UTILISER, FAUSSES INDICATIONS POSSIBLES.

     19/05 12:00Z - 01/06/22 11:59Z
    E) NOTAM TRIGGER - SUP AIP AIRAC 055/22 EN VIGUEUR DU 19 MAI AU 30 NOV 2022 : REMPLACEMENT TEMPORAIRE DU VOR/DME STR AVEC IMPACT SUR LE RESEAU AWY, LES SID, LES STAR ET LES PROCEDURES IFR.

     19/05 12:00Z - 30/11/22 11:59Z
    E) REMPLACEMENT TEMPORAIRE DU VOR/DME STR - SUP AIP AIRAC 055/22 MODIFIE : OBJET : IMPACT SUR LE RESEAU AWY, LES SID, LES STAR ET LES PROCEDURES IFR. MODIFICATION/COMPLEMENT D'INFORMATIONS: DANS LA LISTE DE 'STRASBOURG ENTZHEIM (LFST)' : PARAGRAPHE 'ARRIVEES' : - LIRE 'STAR LUPEN 6V - LUL 6V (REF : LFST STAR RWY23 CONV)' AU LIEU DE 'STAR LUPEN 6V - LUL 6V (REF : LFST STAR RWY05 CONV)' - NE PAS LIRE 'RNP' PARAGRAPHE APPROCHES : - AJOUTER 'VOR Y RWY 05 (REF : AD 2 LFST IAC RWY 05 VOR Y)'. CE SUP AIP EST DISPONIBLE SUR WWW.SIA.AVIATION-CIVILE.GOUV.FR

     20/05 02:28Z - 23/05/22 07:00Z
    E) VOR/DME 'STR' 115.050MHZ : PARTIE DME CH103X HORS SERVICE CAUSE MAINTENANCE: NE PAS UTILISER, FAUSSES INDICATIONS POSSIBLES.

    NOTAM LFGA

     19/05 12:00Z - 30/11/22 11:59Z
    E) REMPLACEMENT TEMPORAIRE DU VOR/DME STR - SUP AIP AIRAC 055/22 : OBJET : IMPACT SUR PROCEDURES D'APPROCHE CE SUP AIP EST DISPONIBLE SUR WWW.SIA.AVIATION-CIVILE.GOUV.FR

     21/04/22 12:00Z - 20/04/23 11:59Z
    E) EVALUATION OPERATIONNELLE D'UNE PROCEDURE IFR PINS RNP 261 SUR HELIPORT DE COLMAR HOPITAL PASTEUR - SUP AIP AIRAC 043/22 : CE SUP AIP EST DISPONIBLE SUR WWW.SIA.AVIATION-CIVILE.GOUV.FR

     02/04 08:06Z - 02/07/22 11:59Z
    E) HORAIRES DE SERVICE GRF: LUN-VEN : 0530-1000, 1200-1500. SAM-DIM-JOUR FERIE : 0630-1100,1200-1600 EN DEHORS DE CES HORAIRES DISPONIBLE SUR DEMANDE POUR VOLS COMMERCIAUX: LUN-VEN: 1000-1200 PPR 6HR EXPLOITANT AD LUN-DIM: PPR 18HR EXPLOITANT AD.

     03/05 07:13Z - 04/08/22 11:59Z
    E) DECOLLAGES DES AERONEFS A VOILURE FIXE INTERDITS DEPUIS UNE PARTIE INTERMEDIAIRE DE LA PISTE REVETUE.

     20/05 02:31Z - 23/05/22 07:00Z
    E) VOR/DME 'STR' 115.050MHZ, PARTIE DME CH103X HORS SERVICE CAUSE MAINTENANCE : NE PAS UTILISER, FAUSSES INDICATIONS POSSIBLES.











  • PHOTOS SATELLITE

CARTE TEMSI

CARTE WINTEM

  • Vent au sol

  • Vent à 2000ft

  • ANIMATION RADAR

  • METAR/TAF LFSB (BÂLE-MULHOUSE)

    LFSB 230530Z VRB03KT CAVOK 17/14 Q1007 NOSIG

    TAF LFSB 222300Z 2300/2324 34006KT CAVOK TEMPO 2301/2305 25012KT -SHRA FEW070CB BKN090 BECMG 2309/2311 29010KT FEW060CB TEMPO 2311/2317 27015G25KT SHRA PROB40 TEMPO 2311/2316 29020G35KT 2500 TSRA SCT050CB

    METAR/TAF LFST (STRASBOURG / Entzheim)

    LFST 230530Z AUTO 25005KT 220V280 CAVOK 15/13 Q1006 TEMPO SHRA SCT070TCU

    TAF LFST 222300Z 2300/2324 VRB04KT CAVOK TEMPO 2302/2306 SHRA FEW080CB BECMG 2306/2308 18010KT TEMPO 2310/2312 FEW060CB TEMPO 2312/2318 22015G25KT 4000 SHRA SCT060CB PROB40 TEMPO 2312/2315 23020G35KT 2000 TSRA PROB30 TEMPO 2312/2315 TSGR

    METAR/TAF LFGA (COLMAR / Houssen)

    LFGA 230530Z AUTO 26004KT CAVOK 17/12 Q1006

    METAR/TAF LFSX

    LFSX 230530Z AUTO 10005KT 9999 ////// 16/13 Q1005

    TAF AMD LFSX 230411Z 2304/2403 11005KT CAVOK BECMG 2309/2310 24010KT TEMPO 2311/2321 24015G30KT TSRA BKN040CB

    METAR/TAF LFSD (DIJON / Longvic)

    LFSD 230530Z AUTO 28003KT 230V310 9999 //////TCU 17/16 Q1005

RESERVATION

  • COMM' FFA

    FLASH SV : L'été arrive et les grandes chaleurs aussi !!!